Weather at Hierro Airport

Public forecast

Using degrees Celsius for public forecast. Weather courtesy of forecast.io.

Current aviation weather report (METAR) for Hierro Airport

Retrieved 2021/04/15 08:00 UTC (28 minutes ago):

GCHI 150800Z 36006KT 9999 FEW030 20/15 Q1017

Aviation forecast (TAF) for Hierro Airport

Retrieved 2021/04/15 09:00 UTC (0 seconds ago):

TAF GCHI 150800Z 1509/1609 35012KT 9999 FEW035 TX24/1514Z TN20/1607Z